Time;durP1;ratioP1;P1;durP2;ratioP2;P2;SDS_P1;SDS_P2;PMS_P1;PMS_P2;Temp;Humidity;BMP_temperature;BMP_pressure;BME280_temperature;BME280_humidity;BME280_pressure;Samples;Min_cycle;Max_cycle;Signal;HPM_P1;HPM_P2
2023/12/13 00:01:46;;;;;;;6.43;4.00;;;;;;;9.65;96.82;98667.31;4992442;28;20215;-77
2023/12/13 00:04:12;;;;;;;3.77;3.43;;;;;;;9.66;96.61;98663.81;4993280;28;20219;-77
2023/12/13 00:06:38;;;;;;;4.90;3.90;;;;;;;9.65;96.28;98668.19;4993876;28;20258;-78
2023/12/13 00:09:08;;;;;;;4.27;3.73;;;;;;;9.68;95.79;98672.41;4993310;28;20699;-78
2023/12/13 00:11:34;;;;;;;4.63;3.80;;;;;;;9.63;95.61;98675.22;4993050;28;20235;-77
2023/12/13 00:14:00;;;;;;;3.27;3.00;;;;;;;9.55;95.67;98669.47;4992866;28;20200;-78
2023/12/13 00:16:27;;;;;;;4.93;3.67;;;;;;;9.50;95.65;98674.03;4994281;28;20210;-78
2023/12/13 00:18:55;;;;;;;3.23;2.93;;;;;;;9.51;95.64;98671.38;4993083;28;20207;-78
2023/12/13 00:21:21;;;;;;;3.27;3.00;;;;;;;9.57;95.36;98683.25;4992196;28;21088;-78
2023/12/13 00:23:47;;;;;;;4.23;3.17;;;;;;;9.58;95.19;98671.94;4992574;28;20231;-77
2023/12/13 00:26:14;;;;;;;4.03;3.27;;;;;;;9.56;94.96;98667.72;4992738;28;20597;-78
2023/12/13 00:28:41;;;;;;;4.87;3.10;;;;;;;9.61;95.01;98676.16;4992499;28;20591;-78
2023/12/13 00:31:08;;;;;;;4.87;3.37;;;;;;;9.51;94.57;98675.72;4992339;28;20223;-78
2023/12/13 00:33:34;;;;;;;11.90;3.57;;;;;;;9.42;95.55;98666.56;4992971;28;20262;-77
2023/12/13 00:36:02;;;;;;;3.73;2.90;;;;;;;9.47;95.44;98668.94;4992002;28;20282;-77
2023/12/13 00:38:28;;;;;;;3.80;3.23;;;;;;;9.50;95.60;98667.06;4992719;28;20634;-78
2023/12/13 00:40:55;;;;;;;8.97;3.00;;;;;;;9.49;95.43;98664.53;4991944;28;20216;-77
2023/12/13 00:43:22;;;;;;;5.33;2.90;;;;;;;9.48;95.21;98661.09;4991609;28;20238;-77
2023/12/13 00:45:48;;;;;;;3.53;2.90;;;;;;;9.67;94.06;98681.09;4991009;28;20318;-77
2023/12/13 00:48:15;;;;;;;3.17;2.50;;;;;;;9.77;92.77;98699.78;4991879;28;20211;-77
2023/12/13 00:50:41;;;;;;;2.73;2.53;;;;;;;9.79;92.49;98717.09;4991405;28;20194;-77
2023/12/13 00:53:09;;;;;;;4.63;2.20;;;;;;;9.52;93.41;98706.91;4983465;28;20200;-77
2023/12/13 00:55:35;;;;;;;2.50;2.30;;;;;;;9.47;93.89;98697.59;4992466;28;20297;-77
2023/12/13 00:58:02;;;;;;;2.77;2.57;;;;;;;9.45;94.07;98689.00;4992165;28;20654;-77
2023/12/13 01:00:29;;;;;;;2.30;2.10;;;;;;;9.43;94.21;98698.66;4990878;28;20221;-77
2023/12/13 01:02:56;;;;;;;3.70;2.30;;;;;;;9.38;94.79;98693.63;4991449;28;20314;-77
2023/12/13 01:05:22;;;;;;;4.83;2.40;;;;;;;9.40;95.15;98684.00;4991248;28;20228;-77
2023/12/13 01:07:49;;;;;;;4.43;2.60;;;;;;;9.40;95.11;98678.78;4990136;28;20207;-76
2023/12/13 01:10:19;;;;;;;5.40;2.60;;;;;;;9.41;95.28;98670.06;4990395;28;20208;-77
2023/12/13 01:12:46;;;;;;;2.60;2.03;;;;;;;9.44;94.94;98656.91;4991013;28;20203;-77
2023/12/13 01:15:13;;;;;;;3.30;2.77;;;;;;;9.40;95.51;98644.94;4990593;28;20645;-77
2023/12/13 01:17:39;;;;;;;3.10;2.80;;;;;;;9.43;95.64;98638.75;4991595;28;20625;-77
2023/12/13 01:20:09;;;;;;;3.00;2.70;;;;;;;9.42;95.05;98645.72;4992333;28;20208;-77
2023/12/13 01:22:35;;;;;;;3.17;2.87;;;;;;;9.36;96.08;98642.53;4992021;28;20717;-78
2023/12/13 01:25:02;;;;;;;3.37;3.03;;;;;;;9.23;96.78;98637.00;4992719;28;20946;-78
2023/12/13 01:27:30;;;;;;;6.93;4.23;;;;;;;9.11;100.00;98589.75;4992771;28;20219;-78
2023/12/13 01:29:56;;;;;;;4.70;4.20;;;;;;;9.07;100.00;98536.13;4992224;28;20260;-77
2023/12/13 01:32:23;;;;;;;4.77;4.37;;;;;;;9.27;100.00;98524.00;4992021;28;20211;-78
2023/12/13 01:34:49;;;;;;;4.63;4.17;;;;;;;9.37;100.00;98527.06;4992745;28;20243;-78
2023/12/13 01:37:15;;;;;;;3.60;3.30;;;;;;;9.37;100.00;98538.31;4991935;28;20265;-78
2023/12/13 01:39:42;;;;;;;4.23;3.90;;;;;;;9.40;100.00;98547.75;4992953;28;20211;-78
2023/12/13 01:42:08;;;;;;;3.70;3.40;;;;;;;9.39;99.42;98557.31;4992629;28;20207;-78
2023/12/13 01:44:38;;;;;;;4.03;3.60;;;;;;;9.43;98.36;98571.88;5025272;23;20285;-80
2023/12/13 01:47:04;;;;;;;3.90;3.50;;;;;;;9.66;97.62;98573.47;5017959;28;20214;-79
2023/12/13 01:49:31;;;;;;;6.47;3.10;;;;;;;9.80;96.20;98600.66;5019727;28;20206;-81
2023/12/13 01:51:58;;;;;;;4.40;4.00;;;;;;;9.54;96.52;98619.13;5018324;28;20198;-81
2023/12/13 01:54:25;;;;;;;3.87;3.57;;;;;;;9.51;96.90;98621.91;5015271;28;20269;-80
2023/12/13 01:56:52;;;;;;;4.20;3.57;;;;;;;9.51;96.91;98619.28;5021095;28;20264;-80
2023/12/13 01:59:19;;;;;;;4.30;3.90;;;;;;;9.51;97.08;98621.03;5021312;28;20203;-80
2023/12/13 02:01:47;;;;;;;5.07;3.83;;;;;;;9.44;97.08;98617.00;5019414;28;20203;-81
2023/12/13 02:04:14;;;;;;;3.80;3.50;;;;;;;9.46;97.43;98613.44;5020893;28;20249;-79
2023/12/13 02:06:41;;;;;;;6.10;4.93;;;;;;;9.48;97.30;98613.38;5020307;28;20203;-80
2023/12/13 02:09:08;;;;;;;4.70;4.30;;;;;;;9.51;96.58;98621.03;5020200;28;20257;-80
2023/12/13 02:11:35;;;;;;;4.60;3.83;;;;;;;9.45;96.99;98614.31;5020826;28;20218;-81
2023/12/13 02:14:02;;;;;;;5.10;4.60;;;;;;;9.53;96.78;98603.56;5019791;28;20222;-80
2023/12/13 02:16:29;;;;;;;4.63;4.10;;;;;;;9.59;96.38;98612.88;5019868;28;20199;-80
2023/12/13 02:18:56;;;;;;;4.73;4.30;;;;;;;9.45;96.96;98603.06;5020519;28;20233;-80
2023/12/13 02:21:24;;;;;;;5.30;4.73;;;;;;;9.39;97.61;98601.56;5018800;28;20764;-80
2023/12/13 02:23:54;;;;;;;9.80;4.00;;;;;;;9.65;96.85;98592.63;5021195;28;20261;-80
2023/12/13 02:26:21;;;;;;;4.40;4.00;;;;;;;9.41;97.93;98589.31;5020362;28;20207;-80
2023/12/13 02:28:49;;;;;;;5.10;3.77;;;;;;;9.24;100.00;98548.44;5020755;28;20203;-81
2023/12/13 02:31:17;;;;;;;4.30;3.90;;;;;;;9.34;100.00;98505.44;5020340;28;20229;-80
2023/12/13 02:33:44;;;;;;;5.60;5.10;;;;;;;9.40;100.00;98498.28;5020110;28;20215;-80
2023/12/13 02:36:11;;;;;;;4.37;4.07;;;;;;;9.41;100.00;98506.00;5020127;28;20202;-80
2023/12/13 02:38:40;;;;;;;5.20;4.80;;;;;;;9.37;100.00;98508.81;5020582;28;20211;-80
2023/12/13 02:41:08;;;;;;;4.77;4.37;;;;;;;9.37;100.00;98506.22;5021106;28;20298;-80
2023/12/13 02:43:34;;;;;;;4.80;4.40;;;;;;;9.33;100.00;98505.50;5020107;28;20230;-78
2023/12/13 02:46:01;;;;;;;4.87;4.47;;;;;;;9.26;100.00;98501.50;5020227;28;20210;-80
2023/12/13 02:48:27;;;;;;;5.03;4.03;;;;;;;9.26;100.00;98494.53;5019578;28;20203;-81
2023/12/13 02:50:53;;;;;;;4.33;4.00;;;;;;;9.15;100.00;98473.34;5019930;28;20287;-79
2023/12/13 02:53:20;;;;;;;5.80;4.40;;;;;;;9.18;100.00;98455.00;5019660;28;20207;-78
2023/12/13 02:55:46;;;;;;;4.43;4.10;;;;;;;9.44;100.00;98447.75;5020560;28;20245;-80
2023/12/13 02:58:14;;;;;;;4.73;4.43;;;;;;;9.67;100.00;98451.84;5019909;28;20226;-80
2023/12/13 03:00:41;;;;;;;4.83;4.43;;;;;;;9.65;100.00;98480.59;5019844;28;20203;-80
2023/12/13 03:03:08;;;;;;;4.23;3.90;;;;;;;9.65;100.00;98505.78;5019635;28;20285;-80
2023/12/13 03:05:34;;;;;;;3.83;3.53;;;;;;;9.74;100.00;98511.44;5019310;28;20223;-80
2023/12/13 03:08:00;;;;;;;4.07;3.57;;;;;;;9.83;100.00;98517.97;5019973;28;20265;-80
2023/12/13 03:10:27;;;;;;;4.13;3.83;;;;;;;9.69;100.00;98521.22;5019395;28;20234;-78
2023/12/13 03:12:54;;;;;;;4.53;4.13;;;;;;;9.79;100.00;98516.44;5019416;28;20654;-81
2023/12/13 03:15:21;;;;;;;3.53;3.23;;;;;;;9.79;100.00;98526.88;5018443;28;20233;-80
2023/12/13 03:17:48;;;;;;;3.77;3.47;;;;;;;9.80;100.00;98518.13;5019312;28;20226;-80
2023/12/13 03:20:14;;;;;;;3.90;3.60;;;;;;;9.84;100.00;98524.03;5018488;28;20261;-81
2023/12/13 03:22:40;;;;;;;4.90;4.50;;;;;;;9.87;100.00;98527.34;5018533;28;20261;-80
2023/12/13 03:25:07;;;;;;;6.00;3.93;;;;;;;9.90;100.00;98527.19;5019101;28;20218;-80
2023/12/13 03:27:33;;;;;;;4.73;4.33;;;;;;;9.79;100.00;98539.88;5019913;28;20206;-80
2023/12/13 03:30:00;;;;;;;4.90;4.17;;;;;;;9.90;100.00;98529.78;5019807;28;20203;-80
2023/12/13 03:32:27;;;;;;;4.77;4.37;;;;;;;9.98;99.79;98541.63;5018780;28;20265;-80
2023/12/13 03:34:54;;;;;;;4.90;4.30;;;;;;;9.85;99.82;98549.16;5018758;28;20226;-80
2023/12/13 03:37:20;;;;;;;5.93;4.60;;;;;;;9.91;99.60;98548.88;5017800;28;20210;-80
2023/12/13 03:39:46;;;;;;;4.97;4.47;;;;;;;9.87;100.00;98540.38;5018770;28;20202;-81
2023/12/13 03:42:13;;;;;;;5.47;5.00;;;;;;;9.87;100.00;98539.50;5018683;28;20211;-80
2023/12/13 03:44:39;;;;;;;4.63;4.23;;;;;;;9.86;100.00;98525.63;5018108;28;20230;-81
2023/12/13 03:47:05;;;;;;;5.23;4.53;;;;;;;9.89;100.00;98530.72;5018637;28;20203;-80
2023/12/13 03:49:33;;;;;;;4.23;3.93;;;;;;;9.91;100.00;98526.28;5018435;28;20199;-80
2023/12/13 03:51:59;;;;;;;3.60;3.30;;;;;;;9.87;100.00;98537.78;5018428;28;20203;-81
2023/12/13 03:54:25;;;;;;;3.43;3.13;;;;;;;9.89;100.00;98538.53;5018037;28;20219;-81
2023/12/13 03:56:52;;;;;;;3.80;3.50;;;;;;;9.91;100.00;98541.06;5018582;28;20206;-81
2023/12/13 03:59:18;;;;;;;4.17;3.50;;;;;;;9.96;99.97;98544.31;5018442;28;20225;-81
2023/12/13 04:01:44;;;;;;;4.20;3.30;;;;;;;9.98;99.46;98554.66;5018813;28;20511;-80
2023/12/13 04:04:11;;;;;;;4.80;3.40;;;;;;;9.99;98.86;98556.34;5018538;28;20776;-80
2023/12/13 04:06:38;;;;;;;4.13;3.10;;;;;;;9.97;98.37;98572.06;5019179;28;20230;-80
2023/12/13 04:09:05;;;;;;;4.23;3.60;;;;;;;9.99;97.98;98578.06;5018943;28;20670;-81
2023/12/13 04:11:31;;;;;;;4.03;3.40;;;;;;;9.97;97.74;98585.09;5018373;28;20272;-79
2023/12/13 04:13:57;;;;;;;4.03;3.03;;;;;;;9.96;97.82;98592.97;5018496;28;20269;-80
2023/12/13 04:16:23;;;;;;;3.57;3.13;;;;;;;9.86;97.81;98588.19;5017260;28;20740;-81
2023/12/13 04:18:50;;;;;;;6.30;3.43;;;;;;;9.88;97.67;98595.94;5018726;28;20207;-80
2023/12/13 04:21:16;;;;;;;5.03;3.27;;;;;;;9.87;97.47;98596.84;5018888;28;20277;-81
2023/12/13 04:23:44;;;;;;;2.80;2.60;;;;;;;9.76;98.19;98594.75;5018870;28;20663;-80
2023/12/13 04:26:10;;;;;;;2.50;2.27;;;;;;;9.62;98.72;98590.16;5019043;28;20268;-80
2023/12/13 04:28:37;;;;;;;6.53;3.07;;;;;;;9.68;98.95;98568.19;5010680;28;20665;-79
2023/12/13 04:31:03;;;;;;;7.33;3.33;;;;;;;9.75;98.79;98569.59;5018881;28;20261;-81
2023/12/13 04:33:31;;;;;;;4.73;2.70;;;;;;;9.80;98.28;98574.59;5019526;28;20199;-79
2023/12/13 04:36:00;;;;;;;5.30;2.93;;;;;;;9.82;97.96;98584.03;5019854;28;20217;-81
2023/12/13 04:38:26;;;;;;;5.53;3.47;;;;;;;9.84;97.68;98587.41;5018575;28;20203;-80
2023/12/13 04:40:54;;;;;;;5.60;3.00;;;;;;;9.87;97.27;98591.63;5019888;28;20203;-80
2023/12/13 04:43:20;;;;;;;2.43;2.23;;;;;;;9.86;97.09;98592.56;5018836;28;20210;-79
2023/12/13 04:45:46;;;;;;;6.10;2.30;;;;;;;9.83;97.04;98598.75;5021560;28;20214;-81
2023/12/13 04:48:12;;;;;;;3.83;2.10;;;;;;;9.82;96.71;98604.03;5022716;28;20215;-79
2023/12/13 04:50:39;;;;;;;2.40;2.17;;;;;;;9.83;96.43;98610.94;5023197;28;20207;-79
2023/12/13 04:53:05;;;;;;;2.30;2.10;;;;;;;9.80;96.45;98617.13;5020804;28;20482;-80
2023/12/13 04:55:31;;;;;;;3.83;2.00;;;;;;;9.81;96.42;98611.03;5021633;28;20249;-80
2023/12/13 04:57:59;;;;;;;3.73;1.80;;;;;;;9.81;96.54;98618.84;5022863;28;20680;-80
2023/12/13 05:00:26;;;;;;;2.70;2.50;;;;;;;9.80;96.04;98629.31;5021389;28;20273;-81
2023/12/13 05:02:52;;;;;;;2.63;2.03;;;;;;;9.77;96.23;98627.69;5022663;28;20203;-80
2023/12/13 05:05:18;;;;;;;2.27;2.10;;;;;;;9.68;96.93;98615.09;5022204;28;20269;-80
2023/12/13 05:07:45;;;;;;;2.47;2.27;;;;;;;9.49;98.32;98594.19;5022289;28;20203;-80
2023/12/13 05:10:11;;;;;;;2.03;1.93;;;;;;;9.41;99.26;98572.88;5022062;28;20253;-80
2023/12/13 05:12:37;;;;;;;1.77;1.67;;;;;;;9.31;100.00;98565.44;5022728;28;20740;-80
2023/12/13 05:15:06;;;;;;;6.47;2.37;;;;;;;9.33;100.00;98529.78;5021482;28;20219;-78
2023/12/13 05:17:32;;;;;;;3.30;2.23;;;;;;;9.38;100.00;98524.38;5022159;28;20712;-79
2023/12/13 05:19:59;;;;;;;1.93;1.83;;;;;;;9.41;100.00;98526.84;5022114;28;20203;-80
2023/12/13 05:22:25;;;;;;;2.17;1.97;;;;;;;9.56;100.00;98524.47;5021944;28;20207;-81
2023/12/13 05:24:51;;;;;;;2.13;1.83;;;;;;;9.66;98.75;98543.97;5022102;28;20608;-81
2023/12/13 05:27:18;;;;;;;2.60;2.13;;;;;;;9.69;97.59;98559.44;5022364;28;20653;-80
2023/12/13 05:29:45;;;;;;;2.30;2.10;;;;;;;9.67;97.49;98571.69;5022470;28;20203;-80
2023/12/13 05:32:13;;;;;;;2.27;2.00;;;;;;;9.67;97.44;98579.50;5023214;28;20207;-80
2023/12/13 05:34:39;;;;;;;2.03;1.70;;;;;;;9.68;97.26;98578.59;5021920;28;20247;-80
2023/12/13 05:37:06;;;;;;;4.37;2.10;;;;;;;9.68;96.95;98586.44;5020847;28;20207;-80
2023/12/13 05:39:32;;;;;;;3.60;2.30;;;;;;;9.65;97.23;98591.75;5021481;28;20206;-80
2023/12/13 05:41:58;;;;;;;3.37;2.70;;;;;;;9.67;97.02;98592.53;5022357;28;20206;-80
2023/12/13 05:44:25;;;;;;;2.23;2.07;;;;;;;9.63;96.73;98599.66;5021156;28;20262;-79
2023/12/13 05:46:51;;;;;;;2.63;2.47;;;;;;;9.65;96.90;98603.06;5022426;28;20285;-81
2023/12/13 05:49:18;;;;;;;2.77;2.57;;;;;;;9.59;97.16;98603.28;5014286;28;20210;-79
2023/12/13 05:51:45;;;;;;;2.80;2.60;;;;;;;9.61;97.17;98598.88;5021820;28;20207;-80
2023/12/13 05:54:11;;;;;;;2.77;2.57;;;;;;;9.57;97.55;98596.47;5021369;28;20222;-79
2023/12/13 05:56:37;;;;;;;3.97;2.37;;;;;;;9.52;98.04;98588.88;5020329;28;20210;-79
2023/12/13 05:59:04;;;;;;;3.03;2.37;;;;;;;9.59;98.22;98581.63;5020434;28;20531;-80
2023/12/13 06:01:31;;;;;;;2.87;2.67;;;;;;;9.62;98.17;98582.34;5021748;28;20223;-80
2023/12/13 06:03:57;;;;;;;3.20;2.77;;;;;;;9.67;97.95;98575.16;5021466;28;20912;-80
2023/12/13 06:06:25;;;;;;;2.57;2.37;;;;;;;9.68;97.76;98579.44;5021240;28;20293;-81
2023/12/13 06:08:51;;;;;;;2.50;2.20;;;;;;;9.64;97.83;98571.84;5021936;28;20245;-80
2023/12/13 06:11:17;;;;;;;3.30;2.47;;;;;;;9.64;97.83;98583.09;5021402;28;20209;-79
2023/12/13 06:13:44;;;;;;;2.90;2.70;;;;;;;9.65;97.82;98591.75;5012194;28;20282;-80
2023/12/13 06:16:12;;;;;;;2.57;2.37;;;;;;;9.57;98.29;98578.25;5021492;28;20206;-81
2023/12/13 06:18:39;;;;;;;2.90;2.40;;;;;;;9.64;98.16;98569.25;5022271;28;20219;-80
2023/12/13 06:21:06;;;;;;;3.20;2.90;;;;;;;9.64;98.28;98571.84;5020703;28;20203;-80
2023/12/13 06:23:34;;;;;;;3.77;2.67;;;;;;;9.64;97.95;98577.91;5021310;28;20202;-80
2023/12/13 06:26:00;;;;;;;3.30;3.00;;;;;;;9.60;98.33;98581.56;5021844;28;20273;-79
2023/12/13 06:28:26;;;;;;;4.60;2.83;;;;;;;9.63;98.26;98573.63;5021572;28;20234;-81
2023/12/13 06:30:53;;;;;;;3.63;2.43;;;;;;;9.65;98.34;98586.56;5022031;28;20203;-80
2023/12/13 06:33:19;;;;;;;2.60;2.33;;;;;;;9.64;98.34;98584.88;5022182;28;20234;-80
2023/12/13 06:35:46;;;;;;;3.67;3.37;;;;;;;9.54;98.83;98582.66;5014783;28;20266;-80
2023/12/13 06:38:13;;;;;;;3.70;3.50;;;;;;;9.58;99.20;98570.38;5022238;28;20210;-80
2023/12/13 06:40:40;;;;;;;4.20;3.90;;;;;;;9.53;99.25;98580.13;5022669;28;20217;-80
2023/12/13 06:43:07;;;;;;;4.43;4.10;;;;;;;9.66;99.26;98570.03;5022063;28;20317;-80
2023/12/13 06:45:33;;;;;;;5.00;4.60;;;;;;;9.67;98.87;98571.69;5021425;28;20237;-80
2023/12/13 06:48:00;;;;;;;4.07;3.77;;;;;;;9.64;99.05;98575.28;5022376;28;20199;-80
2023/12/13 06:50:26;;;;;;;4.73;4.40;;;;;;;9.38;100.00;98570.41;5022911;28;20298;-80
2023/12/13 06:52:54;;;;;;;5.90;5.30;;;;;;;9.40;100.00;98547.75;5022778;28;20203;-80
2023/12/13 06:55:21;;;;;;;5.87;5.10;;;;;;;9.27;100.00;98519.63;5021695;28;20815;-80
2023/12/13 06:57:49;;;;;;;4.83;4.43;;;;;;;9.49;100.00;98503.06;5021508;28;20209;-81
2023/12/13 07:00:19;;;;;;;6.33;4.50;;;;;;;9.59;100.00;98519.94;5021081;28;20739;-80
2023/12/13 07:02:45;;;;;;;4.97;4.57;;;;;;;9.65;100.00;98529.25;5020289;28;20233;-79
2023/12/13 07:05:12;;;;;;;4.23;3.80;;;;;;;9.67;99.83;98541.31;5021809;28;20258;-80
2023/12/13 07:07:38;;;;;;;4.87;3.60;;;;;;;9.70;99.65;98555.94;5020156;28;20214;-79
2023/12/13 07:10:05;;;;;;;4.63;3.50;;;;;;;9.72;99.11;98572.34;5021187;28;20203;-81
2023/12/13 07:12:31;;;;;;;3.83;3.50;;;;;;;9.74;98.72;98579.16;5021089;28;20203;-80
2023/12/13 07:14:59;;;;;;;3.67;3.33;;;;;;;9.71;98.46;98589.75;5013233;28;20237;-80
2023/12/13 07:17:25;;;;;;;5.13;3.80;;;;;;;9.74;98.15;98596.56;5022956;28;20211;-80
2023/12/13 07:19:52;;;;;;;3.70;3.40;;;;;;;9.70;97.90;98605.44;5022101;28;20274;-81
2023/12/13 07:22:18;;;;;;;4.23;3.83;;;;;;;9.63;97.85;98606.63;5021792;28;20203;-79
2023/12/13 07:24:45;;;;;;;6.07;4.20;;;;;;;9.61;98.25;98611.88;5022643;28;20234;-80
2023/12/13 07:27:11;;;;;;;4.77;4.27;;;;;;;9.62;98.37;98605.78;5022002;28;20209;-80
2023/12/13 07:29:38;;;;;;;4.73;4.13;;;;;;;9.62;98.44;98612.75;5021855;28;20743;-80
2023/12/13 07:32:06;;;;;;;5.30;4.80;;;;;;;9.56;98.72;98600.84;5021580;28;20203;-80
2023/12/13 07:34:32;;;;;;;5.53;4.93;;;;;;;9.56;99.30;98595.63;5020786;28;20226;-81
2023/12/13 07:36:59;;;;;;;5.10;4.63;;;;;;;9.60;99.02;98588.53;5020766;28;20219;-80
2023/12/13 07:39:26;;;;;;;5.10;4.70;;;;;;;9.67;98.67;98597.75;5021332;28;20210;-81
2023/12/13 07:41:52;;;;;;;4.83;4.43;;;;;;;9.70;98.54;98608.88;5013785;28;20738;-79
2023/12/13 07:44:18;;;;;;;5.20;4.80;;;;;;;9.77;97.97;98606.84;5019834;28;20237;-80
2023/12/13 07:46:45;;;;;;;9.20;5.30;;;;;;;9.84;97.75;98617.84;5021325;28;20549;-80
2023/12/13 07:49:12;;;;;;;5.60;4.73;;;;;;;9.83;97.64;98626.56;5021249;28;20403;-80
2023/12/13 07:51:39;;;;;;;5.63;5.13;;;;;;;9.80;97.47;98630.16;5073889;23;20206;-78
2023/12/13 07:54:05;;;;;;;6.53;5.97;;;;;;;9.83;97.27;98634.38;5005356;28;20280;-80
2023/12/13 07:56:35;;;;;;;7.00;5.43;;;;;;;9.79;97.58;98633.69;5010514;28;20293;-80
2023/12/13 07:59:01;;;;;;;7.17;5.67;;;;;;;9.83;97.57;98630.03;5015596;28;20199;-80
2023/12/13 08:01:28;;;;;;;11.83;5.33;;;;;;;9.76;97.71;98638.19;5018676;28;20277;-79
2023/12/13 08:03:55;;;;;;;7.30;4.83;;;;;;;9.79;97.86;98628.47;5015844;28;20736;-80
2023/12/13 08:06:23;;;;;;;5.27;4.80;;;;;;;9.83;97.47;98634.38;5013394;28;20778;-78
2023/12/13 08:08:51;;;;;;;6.13;5.63;;;;;;;9.93;98.48;98631.31;5014220;28;20226;-78
2023/12/13 08:11:17;;;;;;;6.37;5.87;;;;;;;9.98;100.00;98597.19;5014147;28;20207;-78
2023/12/13 08:13:44;;;;;;;6.47;5.13;;;;;;;9.87;100.00;98578.59;5013783;28;20226;-78
2023/12/13 08:16:10;;;;;;;6.70;6.10;;;;;;;10.07;100.00;98560.28;5013410;28;20206;-78
2023/12/13 08:18:37;;;;;;;11.20;10.20;;;;;;;9.94;100.00;98546.97;5013511;28;20295;-78
2023/12/13 08:21:06;;;;;;;6.40;5.00;;;;;;;9.88;100.00;98539.44;5016987;28;20231;-79
2023/12/13 08:23:33;;;;;;;4.93;4.43;;;;;;;9.89;100.00;98542.88;5017270;28;20231;-80
2023/12/13 08:26:00;;;;;;;37.20;13.67;;;;;;;10.05;100.00;98529.97;5019206;28;20227;-81
2023/12/13 08:28:26;;;;;;;6.60;5.37;;;;;;;10.13;100.00;98502.63;5020316;28;20202;-78
2023/12/13 08:30:54;;;;;;;4.33;4.03;;;;;;;10.17;100.00;98515.50;5017308;28;20233;-79
2023/12/13 08:33:20;;;;;;;4.87;4.47;;;;;;;10.06;100.00;98555.13;5016686;28;20223;-78
2023/12/13 08:35:47;;;;;;;4.07;3.60;;;;;;;10.03;100.00;98577.00;5016096;28;20214;-77
2023/12/13 08:38:13;;;;;;;5.40;4.10;;;;;;;10.02;99.16;98600.50;5016204;28;20207;-78
2023/12/13 08:40:44;;;;;;;4.10;3.70;;;;;;;10.05;99.02;98609.03;5015250;28;20206;-77
2023/12/13 08:43:11;;;;;;;5.03;3.80;;;;;;;10.23;98.40;98619.53;5015036;28;20285;-77
2023/12/13 08:45:37;;;;;;;4.13;3.73;;;;;;;10.12;98.24;98633.06;5015556;28;20245;-78
2023/12/13 08:48:04;;;;;;;5.87;5.37;;;;;;;10.33;97.31;98641.69;5015070;28;20715;-75
2023/12/13 08:50:31;;;;;;;6.00;5.40;;;;;;;10.40;96.62;98658.72;5016057;28;20210;-78
2023/12/13 08:52:57;;;;;;;12.20;11.13;;;;;;;10.45;96.11;98674.19;5014138;28;20672;-78
2023/12/13 08:55:23;;;;;;;49.23;28.17;;;;;;;10.46;95.63;98689.72;5015507;28;20199;-78
2023/12/13 08:57:51;;;;;;;23.23;17.03;;;;;;;10.42;95.53;98700.38;5015429;28;20206;-78
2023/12/13 09:00:17;;;;;;;16.53;14.00;;;;;;;10.43;95.59;98708.16;5015889;28;20685;-78
2023/12/13 09:02:44;;;;;;;30.77;18.20;;;;;;;10.26;97.09;98684.56;5015719;28;20223;-78
2023/12/13 09:05:10;;;;;;;12.53;11.17;;;;;;;10.30;97.76;98675.72;5016008;28;20285;-76
2023/12/13 09:07:36;;;;;;;10.50;9.40;;;;;;;10.46;96.84;98674.06;5015596;28;20253;-77
2023/12/13 09:10:03;;;;;;;7.33;5.97;;;;;;;10.49;95.98;98694.81;5016827;28;20570;-78
2023/12/13 09:12:31;;;;;;;6.90;6.00;;;;;;;10.61;95.40;98706.44;5014780;28;20226;-78
2023/12/13 09:15:01;;;;;;;5.40;5.00;;;;;;;10.45;94.51;98728.94;5010358;28;20211;-78
2023/12/13 09:17:27;;;;;;;10.37;7.80;;;;;;;10.52;94.81;98728.59;5020280;28;20207;-78
2023/12/13 09:19:53;;;;;;;8.70;8.00;;;;;;;10.57;95.31;98728.38;5014814;28;20210;-78
2023/12/13 09:22:20;;;;;;;6.93;6.33;;;;;;;10.60;95.08;98730.00;5015466;28;20708;-78
2023/12/13 09:24:46;;;;;;;6.60;6.10;;;;;;;10.63;94.81;98724.66;5014970;28;20249;-78
2023/12/13 09:27:13;;;;;;;5.93;4.77;;;;;;;10.48;95.17;98727.03;5015451;28;20207;-78
2023/12/13 09:29:39;;;;;;;4.93;3.50;;;;;;;10.55;95.49;98730.22;5016101;28;20560;-78
2023/12/13 09:32:09;;;;;;;3.57;3.27;;;;;;;10.57;94.71;98735.38;5014135;28;20222;-77
2023/12/13 09:34:35;;;;;;;3.93;2.87;;;;;;;10.65;94.29;98739.31;5013845;28;20755;-77
2023/12/13 09:37:02;;;;;;;2.80;2.37;;;;;;;10.58;94.11;98755.31;5013088;28;20253;-77
2023/12/13 09:39:28;;;;;;;3.70;2.80;;;;;;;10.67;93.92;98757.50;5014675;28;20207;-77
2023/12/13 09:42:01;;;;;;;5.23;2.63;;;;;;;10.68;93.48;98767.88;5013618;28;20231;-77
2023/12/13 09:44:27;;;;;;;2.30;2.10;;;;;;;10.54;93.70;98780.69;5013782;28;20207;-77
2023/12/13 09:46:55;;;;;;;2.77;2.37;;;;;;;10.63;93.73;98775.06;5018387;28;20226;-77
2023/12/13 09:49:24;;;;;;;3.10;1.93;;;;;;;10.63;93.44;98785.50;5013844;28;20262;-78
2023/12/13 09:51:55;;;;;;;4.43;1.93;;;;;;;10.68;92.80;98788.75;5013620;28;20226;-77
2023/12/13 09:54:23;;;;;;;3.20;2.23;;;;;;;10.76;92.76;98804.03;5012496;28;20698;-75
2023/12/13 09:56:54;;;;;;;2.17;1.90;;;;;;;10.77;93.07;98794.47;5011422;28;20713;-77
2023/12/13 09:59:24;;;;;;;2.53;1.80;;;;;;;10.75;92.93;98794.53;5011743;28;20585;-77
2023/12/13 10:01:50;;;;;;;2.43;1.90;;;;;;;10.69;93.08;98792.19;5014103;28;20223;-77
2023/12/13 10:04:18;;;;;;;3.30;2.37;;;;;;;10.65;93.62;98790.66;5013945;28;20207;-77
2023/12/13 10:06:45;;;;;;;2.73;2.37;;;;;;;10.66;93.53;98779.28;5012204;28;20242;-77
2023/12/13 10:09:14;;;;;;;2.70;2.10;;;;;;;10.68;93.40;98778.31;5014252;28;20572;-77
2023/12/13 10:11:43;;;;;;;2.23;2.00;;;;;;;10.69;94.02;98781.75;5013128;28;20221;-77
2023/12/13 10:14:09;;;;;;;3.20;2.30;;;;;;;10.72;93.90;98771.16;5013780;28;20206;-77
2023/12/13 10:16:39;;;;;;;2.90;2.30;;;;;;;10.71;nan;98774.72;5017929;28;20261;-77
2023/12/13 10:19:07;;;;;;;2.60;2.40;;;;;;;10.69;93.90;98771.31;5006310;28;20578;-77
2023/12/13 10:21:37;;;;;;;2.77;2.20;;;;;;;10.69;94.19;98759.13;5013678;28;20211;-77
2023/12/13 10:24:07;;;;;;;6.23;2.43;;;;;;;10.74;94.62;98753.66;5014124;28;20697;-78
2023/12/13 10:26:36;;;;;;;2.87;2.53;;;;;;;10.78;94.49;98754.38;5013545;28;20222;-77
2023/12/13 10:29:03;;;;;;;2.67;2.40;;;;;;;10.75;94.76;98746.72;5013794;28;20205;-77
2023/12/13 10:31:31;;;;;;;3.83;2.23;;;;;;;10.76;94.54;98749.22;5012726;28;20202;-77
2023/12/13 10:33:59;;;;;;;3.50;2.07;;;;;;;10.78;94.75;98743.94;5013334;28;20211;-77
2023/12/13 10:36:29;;;;;;;3.67;2.60;;;;;;;10.80;94.96;98742.97;5013626;28;20253;-77
2023/12/13 10:38:57;;;;;;;4.60;2.33;;;;;;;10.83;95.03;98747.19;5013247;28;20203;-77
2023/12/13 10:41:27;;;;;;;3.13;2.10;;;;;;;10.87;95.76;98733.91;5012641;28;20238;-77
2023/12/13 10:43:55;;;;;;;2.73;1.83;;;;;;;10.90;96.26;98719.84;5012528;28;20218;-78
2023/12/13 10:46:23;;;;;;;1.97;1.87;;;;;;;10.96;96.57;98716.97;5015670;28;20234;-77
2023/12/13 10:48:52;;;;;;;2.87;1.70;;;;;;;10.97;96.12;98715.22;5015425;28;20210;-77
2023/12/13 10:51:22;;;;;;;1.67;1.47;;;;;;;11.00;95.88;98717.66;5012289;28;20211;-77
2023/12/13 10:53:50;;;;;;;2.67;2.10;;;;;;;10.95;96.34;98715.28;5013038;28;20720;-77
2023/12/13 10:56:17;;;;;;;3.67;2.20;;;;;;;10.75;96.63;98720.63;5013144;28;20210;-77
2023/12/13 10:58:45;;;;;;;2.60;2.30;;;;;;;10.79;96.04;98711.72;5012445;28;20207;-77
2023/12/13 11:01:13;;;;;;;2.70;2.30;;;;;;;10.75;97.87;98697.97;5011973;28;20210;-76
2023/12/13 11:03:44;;;;;;;2.67;2.47;;;;;;;10.83;98.54;98680.16;5011196;28;20222;-76
2023/12/13 11:06:13;;;;;;;3.67;2.83;;;;;;;10.89;98.20;98674.66;5010903;28;20227;-76
2023/12/13 11:08:41;;;;;;;3.63;3.37;;;;;;;10.88;96.56;98698.19;5011025;28;20211;-77
2023/12/13 11:11:09;;;;;;;4.27;3.80;;;;;;;10.86;96.49;98710.47;5003141;28;20672;-77
2023/12/13 11:13:39;;;;;;;4.90;4.50;;;;;;;10.92;96.52;98703.22;5011162;28;20227;-76
2023/12/13 11:16:20;;;;;;;5.30;4.30;;;;;;;10.81;96.39;98712.50;5012175;28;20203;-76
2023/12/13 11:18:48;;;;;;;4.67;3.97;;;;;;;10.92;96.76;98713.66;5013417;28;20203;-77
2023/12/13 11:21:24;;;;;;;4.90;4.50;;;;;;;10.87;96.96;98715.63;5011067;28;20207;-76
2023/12/13 11:23:51;;;;;;;4.00;3.70;;;;;;;10.87;96.83;98712.19;5011078;28;20313;-76
2023/12/13 11:26:20;;;;;;;4.30;3.90;;;;;;;10.93;96.51;98719.72;5011941;28;20234;-76
2023/12/13 11:28:54;;;;;;;6.43;3.90;;;;;;;11.00;96.50;98721.13;5009780;28;20222;-76
2023/12/13 11:31:23;;;;;;;4.70;4.03;;;;;;;11.02;96.79;98727.13;5010664;28;20293;-76
2023/12/13 11:33:50;;;;;;;4.83;4.30;;;;;;;11.07;96.96;98716.44;5010537;28;20301;-76
2023/12/13 11:36:21;;;;;;;5.10;4.70;;;;;;;11.03;96.97;98709.69;4315472;28;10000843;-76